Overton, Nevada Weather observations

Data are for observation ending at time listed.
 Day   Time    Ave.   Ave.  Ave.  Vector   Max.   Stn.    Total    Solar   Ave.  
  of    of     Air    Rel.  Wind   Wind    Wind   Baro.  Precip.   Rad.    Soil  
Year   Day     Temp.  Hum.  Speed  Dir.    Gust   Pres.                    Temp. 
2014   (PST)    F      %     mph   deg.    mph     mb.     in.     W/m2     F   
------------------------------------------------------------------------------
 272   12:40   82.1    23    3.4    53      6.9   967.1    0.00     679    80.2
 272   12:50   82.1    24    2.3    37      5.7   967.0    0.00     667    80.2
 272   13:00   82.7    23    2.9   324      7.5   966.9    0.00     653    80.3
 272   13:10   82.1    23    3.4   316      5.8   966.9    0.00     638    80.5
 272   13:20   82.9    23    2.2   357      5.6   966.9    0.00     623    80.7
 272   13:30   83.1    22    2.6    18      7.5   967.0    0.00     603    80.8
 272   13:40   82.9    22    2.3   127      5.0   967.1    0.00     585    80.9
 272   13:50   83.2    22    2.9    69      6.1   967.1    0.00     567    81.1
 272   14:00   82.7    23    3.5    56      5.8   967.1    0.00     548    81.2
 272   14:10   82.7    23    2.8    47      5.3   967.0    0.00     528    81.4
 272   14:20   82.8    23    3.7     7      8.0   967.0    0.00     502    81.6
 272   14:30   83.4    22    2.9    27      8.3   966.8    0.00     479    81.8
 272   14:40   83.8    22    3.2    22      5.4   966.7    0.00     446    81.8
 272   14:50   83.1    22    3.6    49      6.1   966.7    0.00     424    82.0
 272   15:00   83.3    22    3.3    32      6.2   966.7    0.00     396    82.0
 272   15:10   83.4    21    3.5    25      5.9   966.7    0.00     367    82.1
 272   15:20   83.8    20    2.9     2      5.0   966.7    0.00     337    82.1
 272   15:30   83.2    20    3.4    10      5.6   966.6    0.00     313    82.1
 272   15:40   83.8    19    1.5   357      4.3   966.6    0.00     268    82.2
 272   15:50   84.2    19    1.7   338      4.2   966.5    0.00     255    82.2
 272   16:00   83.4    20    1.9    32      4.5   966.5    0.00     225    82.2
 272   16:10   83.6    20    0.9    76      2.9   966.5    0.00     195    82.1
 272   16:20   83.0    20    1.3    80      2.6   966.4    0.00     165    82.1
 272   16:30   83.0    22    2.0    55      3.1   966.4    0.00     137    82.0
 272   16:40   82.7    22    1.1    75      2.8   966.3    0.00     109    81.9
 272   16:50   82.6    24    1.4    67      3.0   966.3    0.00      80    81.9
 272   17:00   81.9    23    1.6   116      4.5   966.2    0.00      45    81.8
 272   17:10   81.4    24    2.6   146      5.5   966.1    0.00      27    81.6
 272   17:20   80.7    24    2.1   149      4.2   965.9    0.00       9    81.5
 272   17:30   79.8    26    2.1   162      3.7   965.7    0.00       4    81.3
 272   17:40   79.0    26    1.7   159      2.8   965.5    0.00       1    81.0
 272   17:50   78.5    26    1.2   162      2.3   965.4    0.00       0    80.8
 272   18:00   76.6    36    0.2   186      1.5   965.3    0.00       0    80.5
 272   18:10   73.5    45    0.0    83      0.5   965.2    0.00       0    80.2
 272   18:20   71.8    50    0.1   343      0.9   965.0    0.00       0    80.0
 272   18:30   71.5    47    0.0     0      0.0   964.9    0.00       0    79.6
 272   18:40   70.5    51    0.0   345      0.7   964.8    0.00       0    79.3
 272   18:50   70.8    48    0.5   323      1.2   964.7    0.00       0    79.0
 272   19:00   71.2    45    1.0   279      2.9   964.6    0.00       0    78.7
 272   19:10   70.3    51    1.6   304      2.3   964.6    0.00       0    78.5
 272   19:20   68.1    57    1.6   311      2.3   964.6    0.00       0    78.2
 272   19:30   67.1    56    2.4   322      3.0   964.6    0.00       0    77.9
 272   19:40   66.8    57    1.8   323      2.3   964.6    0.00       0    77.6
 272   19:50   66.3    60    2.1   325      2.9   964.6    0.00       0    77.3
 272   20:00   66.0    61    0.6   318      1.5   964.7    0.00       0    77.0
 272   20:10   67.1    56    0.9   300      2.0   964.7    0.00       0    76.8
 272   20:20   67.9    53    0.8   280      2.3   964.7    0.00       0    76.6
 272   20:30   67.6    56    1.6   294      2.8   964.9    0.00       0    76.4
 272   20:40   66.4    59    1.1   312      2.3   965.0    0.00       0    76.2
 272   20:50   66.4    58    0.9   279      1.8   965.0    0.00       0    75.9
 272   21:00   66.1    60    0.7   295      2.0   965.0    0.00       0    75.8
 272   21:10   66.3    58    1.2   284      2.6   965.0    0.00       0    75.5
 272   21:20   66.7    57    1.2   290      3.0   965.0    0.00       0    75.4
 272   21:30   66.1    58    0.7   270      1.9   965.0    0.00       0    75.2
 272   21:40   65.2    62    1.8   305      2.6   965.0    0.00       0    75.0
 272   21:50   64.8    62    1.2   300      2.7   965.0    0.00       0    74.8
 272   22:00   64.6    63    1.1   294      2.5   965.0    0.00       0    74.6
 272   22:10   63.9    65    1.4   308      2.6   965.0    0.00       0    74.4
 272   22:20   63.2    67    2.1   345      3.0   965.0    0.00       0    74.2
 272   22:30   62.8    67    2.3   336      3.1   965.1    0.00       0    74.0
 272   22:40   64.3    62    1.1   295      3.3   965.1    0.00       0    73.8
 272   22:50   64.8    61    1.8   292      4.4   965.1    0.00       0    73.7
 272   23:00   64.4    61    3.8   292      5.3   965.1    0.00       0    73.5
 272   23:10   64.2    61    2.4   293      4.8   965.1    0.00       0    73.3
 272   23:20   64.0    62    3.2   297      5.3   965.2    0.00       0    73.1
 272   23:30   63.6    64    1.6   315      3.2   965.1    0.00       0    73.0
 272   23:40   62.7    65    2.4   305      3.8   965.1    0.00       0    72.8
 272   23:50   62.9    65    1.4   316      2.3   965.0    0.00       0    72.7
 273    0:00   62.0    68    1.0   320      2.2   965.0    0.00       0    72.5
 273    0:10   61.9    68    1.7   321      2.7   965.0    0.00       0    72.4
 273    0:20   61.8    68    1.0   296      3.5   964.9    0.00       0    72.2
 273    0:30   62.6    65    1.2   260      2.5   964.8    0.00       0    72.1
 273    0:40   63.2    63    1.8   265      3.3   964.9    0.00       0    72.0
 273    0:50   62.4    66    0.9   300      1.6   965.0    0.00       0    71.9
 273    1:00   60.7    71    0.9   352      1.9   965.0    0.00       0    71.7
 273    1:10   60.7    71    0.5     4      2.2   965.0    0.00       0    71.6
 273    1:20   59.4    75    2.4   358      2.9   964.9    0.00       0    71.4
 273    1:30   59.6    74    1.1   321      2.3   964.7    0.00       0    71.2
 273    1:40   60.6    71    0.9   277      2.6   964.7    0.00       0    71.1
 273    1:50   61.2    69    1.4   286      3.4   964.7    0.00       0    71.0
 273    2:00   61.6    68    1.1   259      2.9   964.6    0.00       0    70.9
 273    2:10   61.1    70    1.3   275      2.9   964.5    0.00       0    70.8
 273    2:20   61.6    69    1.8   285      3.7   964.5    0.00       0    70.6
 273    2:30   61.5    69    2.7   288      4.5   964.5    0.00       0    70.5
 273    2:40   61.3    69    2.9   292      4.6   964.5    0.00       0    70.4
 273    2:50   61.5    69    2.0   282      3.8   964.5    0.00       0    70.3
 273    3:00   60.6    71    3.4   305      4.4   964.5    0.00       0    70.2
 273    3:10   61.1    69    3.0   300      4.1   964.5    0.00       0    70.0
 273    3:20   61.3    69    1.5   294      3.2   964.5    0.00       0    69.9
 273    3:30   61.0    69    1.1   280      2.1   964.4    0.00       0    69.8
 273    3:40   60.9    69    0.4   298      1.8   964.4    0.00       0    69.8
 273    3:50   60.6    70    1.3   248      2.3   964.4    0.00       0    69.7
 273    4:00   60.9    69    0.8   272      1.8   964.5    0.00       0    69.6
 273    4:10   60.5    70    0.8   251      2.0   964.4    0.00       0    69.5
 273    4:20   59.3    73    0.6   323      1.5   964.4    0.00       0    69.3
 273    4:30   58.1    76    0.1   293      0.9   964.4    0.00       0    69.2
 273    4:40   58.9    74    0.5   277      1.9   964.4    0.00       0    69.1
 273    4:50   59.8    71    1.0   233      2.0   964.4    0.00       0    69.0
 273    5:00   59.4    72    0.4   281      2.0   964.5    0.00       0    68.9
 273    5:10   58.0    75    0.2    10      1.3   964.6    0.00       0    68.8
 273    5:20   58.3    75    1.1   334      1.5   964.6    0.00       0    68.7
 273    5:30   58.7    74    0.3   244      1.6   964.7    0.00       2    68.6
 273    5:40   58.4    74    0.9   273      2.6   964.7    0.00       4    68.5
 273    5:50   58.6    73    1.0   280      2.2   964.7    0.00       9    68.4
 273    6:00   58.5    73    1.2   266      2.3   964.7    0.00      31    68.3
 273    6:10   61.0    67    1.5   254      2.8   964.8    0.00      56    68.3
 273    6:20   62.5    64    1.8   302      3.9   965.1    0.00      87    68.5
 273    6:30   62.7    65    3.1   312      4.7   965.3    0.00     115    68.8
 273    6:40   63.3    63    3.8   296      5.8   965.6    0.00     100    69.3
 273    6:50   63.7    63    4.6   312      7.6   965.8    0.00      27    69.8
 273    7:00   64.5    62    3.2   313      6.6   966.1    0.00      93    70.4
 273    7:10   65.4    60    3.8   306      6.0   966.3    0.00      32    71.1
 273    7:20   66.1    58    4.1   314      5.8   966.3    0.00     146    71.8
 273    7:30   67.5    56    3.9   310      6.1   966.4    0.00     291    72.4
 273    7:40   68.6    53    4.1   320      5.6   966.4    0.00     204    73.3
 273    7:50   69.9    48    4.7   328      7.1   966.6    0.00     351    74.1
 273    8:00   70.6    45    5.9   340      9.0   966.7    0.00     362    74.8
 273    8:10   71.0    44    5.3   337      7.5   966.9    0.00     395    75.5
 273    8:20   71.6    41    4.6   343      6.8   967.0    0.00     284    76.2
 273    8:30   72.4    39    4.4   318      7.2   967.2    0.00     346    77.1
 273    8:40   73.3    38    4.1   332      6.6   967.4    0.00     474    77.9
 273    8:50   73.9    38    4.4   332      6.8   967.4    0.00     395    78.7
 273    9:00   74.4    35    3.5   316      6.9   967.3    0.00     222    79.5
 273    9:10   75.8    33    2.2   314      5.8   967.3    0.00     547    80.3
 273    9:20   76.0    32    2.6   337      4.7   967.3    0.00     564    81.1
 273    9:30   76.6    32    2.5   308      5.2   967.3    0.00     580    81.8
 273    9:40   77.2    31    2.2   318      4.7   967.2    0.00     602    82.3
 273    9:50   78.5    30    1.1   330      4.6   967.1    0.00     621    82.8
 273   10:00   80.1    28    0.9    59      2.6   967.0    0.00     637    82.8
 273   10:10   80.9    27    1.4   325      3.6   967.0    0.00     651    82.5
 273   10:20   80.4    27    1.5   342      3.6   966.9    0.00     663    82.1
 273   10:30   80.5    27    1.6    13      3.6   967.0    0.00     674    81.7
 273   10:40   81.3    26    1.2    14      3.4   966.8    0.00     684    81.4
 273   10:50   82.0    25    1.8   165      4.3   966.8    0.00     694    81.2
 273   11:00   83.0    24    0.8   248      3.4   966.7    0.00     700    81.0
 273   11:10   82.6    24    1.7   321      4.7   966.5    0.00     705    80.9
 273   11:20   81.7    24    3.3   328      4.7   966.4    0.00     708    80.7
 273   11:30   82.5    24    0.9   346      4.0   966.3    0.00     710    80.6
 273   11:40   84.3    22    0.9   184      2.5   966.1    0.00     712    80.5
 273   11:50   84.4    21    1.5   170      2.9   966.0    0.00     711    80.4
 273   12:00   83.9    22    2.0    84      4.1   965.8    0.00     708    80.3
 273   12:10   83.7    22    2.9    63      5.3   965.6    0.00     706    80.2
 273   12:20   84.0    22    2.4   129      4.9   965.4    0.00     696    80.2
 273   12:30   84.8    21    1.8    77      5.6   965.1    0.00     688    80.2

Return to Overton, Nevada graphs page.


Western Regional Climate Center,wrcc@dri.edu